Terminal Aerodrome Forecast
Issued by NWS

Home | Current Version | Previous Version | Text Only | Print | Product List | Glossary Off
Versions: 1 2 3 4 5 6 7 8 9 10 11 12 13

000
FTUS43 KTOP 032327
TAFMHK
TAF
KMHK 032327Z 0400/0424 04005KT P6SM FEW040
     FM040900 00000KT 4SM BR SKC
     FM041500 15006KT P6SM SKC=

USA.gov is the U.S. government's official web portal to all federal, state and local government web resources and services.